sensor_id;sensor_type;location;lat;lon;timestamp;pressure;altitude;pressure_sealevel;temperature;humidity
35778;BME280;21899;42.662;23.316;2023-07-24T00:02:06;94670.34;;;21.96;82.97
35778;BME280;21899;42.662;23.316;2023-07-24T00:04:32;94665.66;;;21.97;83.09
35778;BME280;21899;42.662;23.316;2023-07-24T00:06:57;94673.38;;;21.98;80.63
35778;BME280;21899;42.662;23.316;2023-07-24T00:09:23;94658.22;;;21.88;79.74
35778;BME280;21899;42.662;23.316;2023-07-24T00:11:48;94664.75;;;21.91;78.71
35778;BME280;21899;42.662;23.316;2023-07-24T00:14:15;94664.75;;;21.91;78.03
35778;BME280;21899;42.662;23.316;2023-07-24T00:16:40;94666.25;;;21.83;78.15
35778;BME280;21899;42.662;23.316;2023-07-24T00:19:06;94663.66;;;21.79;78.26
35778;BME280;21899;42.662;23.316;2023-07-24T00:21:31;94649.50;;;21.72;78.41
35778;BME280;21899;42.662;23.316;2023-07-24T00:23:56;94657.22;;;21.73;78.19
35778;BME280;21899;42.662;23.316;2023-07-24T00:26:22;94661.38;;;21.78;77.06
35778;BME280;21899;42.662;23.316;2023-07-24T00:28:47;94652.81;;;21.67;78.01
35778;BME280;21899;42.662;23.316;2023-07-24T00:31:12;94649.50;;;21.63;80.36
35778;BME280;21899;42.662;23.316;2023-07-24T00:33:38;94652.66;;;21.61;83.99
35778;BME280;21899;42.662;23.316;2023-07-24T00:36:03;94658.84;;;21.62;84.69
35778;BME280;21899;42.662;23.316;2023-07-24T00:38:29;94652.47;;;21.56;86.10
35778;BME280;21899;42.662;23.316;2023-07-24T00:40:54;94641.56;;;21.47;89.16
35778;BME280;21899;42.662;23.316;2023-07-24T00:43:19;94648.31;;;21.42;90.44
35778;BME280;21899;42.662;23.316;2023-07-24T00:45:46;94658.59;;;21.38;91.10
35778;BME280;21899;42.662;23.316;2023-07-24T00:48:12;94655.13;;;21.38;91.41
35778;BME280;21899;42.662;23.316;2023-07-24T00:50:37;94659.34;;;21.39;91.02
35778;BME280;21899;42.662;23.316;2023-07-24T00:53:04;94651.22;;;21.48;90.67
35778;BME280;21899;42.662;23.316;2023-07-24T00:55:30;94659.09;;;21.46;88.17
35778;BME280;21899;42.662;23.316;2023-07-24T00:57:58;94654.09;;;21.44;90.15
35778;BME280;21899;42.662;23.316;2023-07-24T01:00:23;94650.00;;;21.40;91.20
35778;BME280;21899;42.662;23.316;2023-07-24T01:02:49;94646.63;;;21.36;91.33
35778;BME280;21899;42.662;23.316;2023-07-24T01:05:16;94639.75;;;21.22;92.10
35778;BME280;21899;42.662;23.316;2023-07-24T01:07:41;94628.50;;;21.11;93.65
35778;BME280;21899;42.662;23.316;2023-07-24T01:10:07;94637.88;;;21.10;93.85
35778;BME280;21899;42.662;23.316;2023-07-24T01:13:01;94640.22;;;20.99;94.14
35778;BME280;21899;42.662;23.316;2023-07-24T01:15:33;94651.09;;;20.99;94.43
35778;BME280;21899;42.662;23.316;2023-07-24T01:18:01;94646.22;;;20.94;94.09
35778;BME280;21899;42.662;23.316;2023-07-24T01:20:31;94640.28;;;20.87;94.92
35778;BME280;21899;42.662;23.316;2023-07-24T01:25:55;94622.38;;;20.77;95.59
35778;BME280;21899;42.662;23.316;2023-07-24T01:28:21;94628.91;;;20.79;95.21
35778;BME280;21899;42.662;23.316;2023-07-24T01:30:46;94632.03;;;20.77;95.39
35778;BME280;21899;42.662;23.316;2023-07-24T01:33:12;94635.31;;;20.72;95.19
35778;BME280;21899;42.662;23.316;2023-07-24T01:35:39;94626.66;;;20.65;94.68
35778;BME280;21899;42.662;23.316;2023-07-24T01:38:06;94623.13;;;20.55;95.50
35778;BME280;21899;42.662;23.316;2023-07-24T01:40:31;94615.72;;;20.34;95.53
35778;BME280;21899;42.662;23.316;2023-07-24T01:42:57;94640.63;;;20.54;94.75
35778;BME280;21899;42.662;23.316;2023-07-24T01:45:24;94649.63;;;20.64;93.63
35778;BME280;21899;42.662;23.316;2023-07-24T01:47:50;94655.53;;;20.62;93.31
35778;BME280;21899;42.662;23.316;2023-07-24T01:50:15;94650.66;;;20.57;93.57
35778;BME280;21899;42.662;23.316;2023-07-24T01:52:41;94641.00;;;20.44;94.04
35778;BME280;21899;42.662;23.316;2023-07-24T01:55:06;94644.16;;;20.42;93.89
35778;BME280;21899;42.662;23.316;2023-07-24T01:57:32;94644.22;;;20.51;93.76
35778;BME280;21899;42.662;23.316;2023-07-24T01:59:57;94650.75;;;20.54;93.52
35778;BME280;21899;42.662;23.316;2023-07-24T02:02:22;94646.22;;;20.51;92.89
35778;BME280;21899;42.662;23.316;2023-07-24T02:04:48;94641.63;;;20.48;92.59
35778;BME280;21899;42.662;23.316;2023-07-24T02:07:13;94650.00;;;20.53;92.16
35778;BME280;21899;42.662;23.316;2023-07-24T02:09:39;94647.28;;;20.53;92.04
35778;BME280;21899;42.662;23.316;2023-07-24T02:12:04;94636.06;;;20.51;91.46
35778;BME280;21899;42.662;23.316;2023-07-24T02:14:30;94634.31;;;20.57;90.95
35778;BME280;21899;42.662;23.316;2023-07-24T02:16:55;94632.88;;;20.65;90.65
35778;BME280;21899;42.662;23.316;2023-07-24T02:19:21;94645.03;;;20.73;89.45
35778;BME280;21899;42.662;23.316;2023-07-24T02:21:46;94646.97;;;20.73;89.65
35778;BME280;21899;42.662;23.316;2023-07-24T02:24:12;94640.34;;;20.74;90.05
35778;BME280;21899;42.662;23.316;2023-07-24T02:26:37;94632.94;;;20.74;89.99
35778;BME280;21899;42.662;23.316;2023-07-24T02:29:02;94636.34;;;20.66;89.43
35778;BME280;21899;42.662;23.316;2023-07-24T02:31:28;94631.91;;;20.59;90.13
35778;BME280;21899;42.662;23.316;2023-07-24T02:33:53;94637.09;;;20.66;89.63
35778;BME280;21899;42.662;23.316;2023-07-24T02:36:18;94637.06;;;20.57;89.27
35778;BME280;21899;42.662;23.316;2023-07-24T02:38:44;94631.53;;;20.48;90.19
35778;BME280;21899;42.662;23.316;2023-07-24T02:41:09;94632.19;;;20.52;90.35
35778;BME280;21899;42.662;23.316;2023-07-24T02:43:34;94641.03;;;20.65;89.71
35778;BME280;21899;42.662;23.316;2023-07-24T02:46:01;94634.81;;;20.65;86.95
35778;BME280;21899;42.662;23.316;2023-07-24T02:48:27;94639.25;;;20.71;86.55
35778;BME280;21899;42.662;23.316;2023-07-24T02:50:52;94639.13;;;20.75;84.68
35778;BME280;21899;42.662;23.316;2023-07-24T02:53:17;94637.06;;;20.79;84.73
35778;BME280;21899;42.662;23.316;2023-07-24T02:55:43;94624.59;;;20.69;83.94
35778;BME280;21899;42.662;23.316;2023-07-24T02:58:09;94630.03;;;20.69;87.19
35778;BME280;21899;42.662;23.316;2023-07-24T03:00:34;94637.44;;;20.68;87.30
35778;BME280;21899;42.662;23.316;2023-07-24T03:02:59;94631.53;;;20.70;88.36
35778;BME280;21899;42.662;23.316;2023-07-24T03:05:25;94631.91;;;20.81;87.49
35778;BME280;21899;42.662;23.316;2023-07-24T03:07:50;94630.44;;;20.89;87.84
35778;BME280;21899;42.662;23.316;2023-07-24T03:10:16;94629.25;;;20.90;87.36
35778;BME280;21899;42.662;23.316;2023-07-24T03:12:42;94626.53;;;20.90;87.47
35778;BME280;21899;42.662;23.316;2023-07-24T03:15:07;94621.34;;;20.83;87.75
35778;BME280;21899;42.662;23.316;2023-07-24T03:17:32;94622.13;;;20.84;85.10
35778;BME280;21899;42.662;23.316;2023-07-24T03:19:59;94626.47;;;20.81;84.98
35778;BME280;21899;42.662;23.316;2023-07-24T03:22:24;94620.53;;;20.73;85.58
35778;BME280;21899;42.662;23.316;2023-07-24T03:24:49;94626.59;;;20.77;87.74
35778;BME280;21899;42.662;23.316;2023-07-24T03:27:15;94627.25;;;20.82;88.05
35778;BME280;21899;42.662;23.316;2023-07-24T03:29:40;94632.94;;;20.74;88.41
35778;BME280;21899;42.662;23.316;2023-07-24T03:32:06;94632.94;;;20.74;88.82
35778;BME280;21899;42.662;23.316;2023-07-24T03:34:32;94634.19;;;20.83;88.44
35778;BME280;21899;42.662;23.316;2023-07-24T03:36:57;94635.16;;;20.89;88.24
35778;BME280;21899;42.662;23.316;2023-07-24T03:39:23;94628.13;;;20.79;88.19
35778;BME280;21899;42.662;23.316;2023-07-24T03:41:48;94639.78;;;20.79;88.50
35778;BME280;21899;42.662;23.316;2023-07-24T03:44:14;94637.47;;;20.77;88.38
35778;BME280;21899;42.662;23.316;2023-07-24T03:46:39;94635.31;;;20.72;88.39
35778;BME280;21899;42.662;23.316;2023-07-24T03:49:04;94633.19;;;20.67;88.81
35778;BME280;21899;42.662;23.316;2023-07-24T03:51:30;94634.91;;;20.74;87.75
35778;BME280;21899;42.662;23.316;2023-07-24T03:53:55;94630.47;;;20.67;87.13
35778;BME280;21899;42.662;23.316;2023-07-24T03:56:21;94635.06;;;20.58;87.28
35778;BME280;21899;42.662;23.316;2023-07-24T03:58:46;94643.28;;;20.45;88.54
35778;BME280;21899;42.662;23.316;2023-07-24T04:01:11;94632.69;;;20.26;90.69
35778;BME280;21899;42.662;23.316;2023-07-24T04:03:37;94624.91;;;20.15;89.63
35778;BME280;21899;42.662;23.316;2023-07-24T04:06:02;94626.06;;;20.14;90.49
35778;BME280;21899;42.662;23.316;2023-07-24T04:08:28;94630.50;;;20.33;90.65
35778;BME280;21899;42.662;23.316;2023-07-24T04:10:53;94647.19;;;20.44;89.52
35778;BME280;21899;42.662;23.316;2023-07-24T04:13:21;94649.81;;;20.69;87.65
35778;BME280;21899;42.662;23.316;2023-07-24T04:15:46;94655.09;;;20.86;85.53
35778;BME280;21899;42.662;23.316;2023-07-24T04:18:12;94661.28;;;20.86;81.23
35778;BME280;21899;42.662;23.316;2023-07-24T04:20:37;94669.63;;;20.92;82.00
35778;BME280;21899;42.662;23.316;2023-07-24T04:23:02;94657.00;;;20.98;80.88
35778;BME280;21899;42.662;23.316;2023-07-24T04:25:28;94650.97;;;21.03;78.31
35778;BME280;21899;42.662;23.316;2023-07-24T04:27:53;94659.91;;;21.03;78.57
35778;BME280;21899;42.662;23.316;2023-07-24T04:30:19;94660.69;;;21.04;76.78
35778;BME280;21899;42.662;23.316;2023-07-24T04:32:44;94651.19;;;21.08;74.92
35778;BME280;21899;42.662;23.316;2023-07-24T04:35:11;94646.53;;;21.18;72.59
35778;BME280;21899;42.662;23.316;2023-07-24T04:37:36;94647.22;;;21.31;72.05
35778;BME280;21899;42.662;23.316;2023-07-24T04:40:02;94651.22;;;21.48;73.20
35778;BME280;21899;42.662;23.316;2023-07-24T04:42:27;94653.25;;;21.65;71.99
35778;BME280;21899;42.662;23.316;2023-07-24T04:44:53;94631.09;;;21.85;72.55
35778;BME280;21899;42.662;23.316;2023-07-24T04:47:18;94650.16;;;22.52;69.65
35778;BME280;21899;42.662;23.316;2023-07-24T04:49:43;94655.16;;;23.16;65.27
35778;BME280;21899;42.662;23.316;2023-07-24T04:52:09;94651.09;;;23.63;61.23
35778;BME280;21899;42.662;23.316;2023-07-24T04:54:34;94658.31;;;24.16;56.69
35778;BME280;21899;42.662;23.316;2023-07-24T04:56:59;94659.06;;;24.64;53.21
35778;BME280;21899;42.662;23.316;2023-07-24T04:59:25;94662.69;;;24.70;52.73
35778;BME280;21899;42.662;23.316;2023-07-24T05:01:50;94659.31;;;24.75;51.67
35778;BME280;21899;42.662;23.316;2023-07-24T05:04:16;94655.94;;;24.80;51.10
35778;BME280;21899;42.662;23.316;2023-07-24T05:06:41;94670.91;;;25.08;50.83
35778;BME280;21899;42.662;23.316;2023-07-24T05:09:07;94672.63;;;25.64;50.22
35778;BME280;21899;42.662;23.316;2023-07-24T05:11:32;94668.63;;;25.94;48.89
35778;BME280;21899;42.662;23.316;2023-07-24T05:13:57;94674.63;;;26.27;48.95
35778;BME280;21899;42.662;23.316;2023-07-24T05:16:23;94671.78;;;26.22;48.96
35778;BME280;21899;42.662;23.316;2023-07-24T05:18:48;94669.59;;;25.77;49.92
35778;BME280;21899;42.662;23.316;2023-07-24T05:21:13;94661.31;;;25.56;51.31
35778;BME280;21899;42.662;23.316;2023-07-24T05:23:39;94663.81;;;25.89;50.55
35778;BME280;21899;42.662;23.316;2023-07-24T05:26:04;94665.44;;;26.30;49.12
35778;BME280;21899;42.662;23.316;2023-07-24T05:28:31;94670.03;;;26.39;47.68
35778;BME280;21899;42.662;23.316;2023-07-24T05:31:03;94660.38;;;26.09;48.71
35778;BME280;21899;42.662;23.316;2023-07-24T05:33:30;94656.91;;;26.28;47.99
35778;BME280;21899;42.662;23.316;2023-07-24T05:36:02;94655.50;;;26.33;47.94
35778;BME280;21899;42.662;23.316;2023-07-24T05:38:27;94661.91;;;26.30;48.60
35778;BME280;21899;42.662;23.316;2023-07-24T05:41:01;94664.41;;;26.48;47.15
35778;BME280;21899;42.662;23.316;2023-07-24T05:43:27;94659.97;;;26.50;47.66
35778;BME280;21899;42.662;23.316;2023-07-24T05:45:54;94650.50;;;26.71;47.56
35778;BME280;21899;42.662;23.316;2023-07-24T05:48:20;94652.34;;;26.80;46.51
35778;BME280;21899;42.662;23.316;2023-07-24T05:50:46;94643.00;;;26.92;46.25
35778;BME280;21899;42.662;23.316;2023-07-24T05:53:13;94642.69;;;27.30;45.17
35778;BME280;21899;42.662;23.316;2023-07-24T05:55:38;94646.00;;;26.94;43.59
35778;BME280;21899;42.662;23.316;2023-07-24T05:58:03;94643.34;;;26.79;43.94
35778;BME280;21899;42.662;23.316;2023-07-24T06:00:29;94638.56;;;27.20;43.59
35778;BME280;21899;42.662;23.316;2023-07-24T06:02:54;94634.19;;;27.08;43.35
35778;BME280;21899;42.662;23.316;2023-07-24T06:05:20;94633.25;;;27.42;42.71
35778;BME280;21899;42.662;23.316;2023-07-24T06:07:46;94633.19;;;27.11;44.32
35778;BME280;21899;42.662;23.316;2023-07-24T06:10:12;94634.94;;;27.34;43.08
35778;BME280;21899;42.662;23.316;2023-07-24T06:12:38;94636.13;;;27.28;43.49
35778;BME280;21899;42.662;23.316;2023-07-24T06:15:04;94633.38;;;27.02;44.35
35778;BME280;21899;42.662;23.316;2023-07-24T06:17:29;94631.75;;;26.90;44.91
35778;BME280;21899;42.662;23.316;2023-07-24T06:19:55;94627.78;;;26.71;45.43
35778;BME280;21899;42.662;23.316;2023-07-24T06:22:20;94640.38;;;26.43;46.37
35778;BME280;21899;42.662;23.316;2023-07-24T06:24:46;94630.78;;;26.53;47.01
35778;BME280;21899;42.662;23.316;2023-07-24T06:27:11;94635.38;;;26.21;48.15
35778;BME280;21899;42.662;23.316;2023-07-24T06:29:37;94639.25;;;26.15;48.53
35778;BME280;21899;42.662;23.316;2023-07-24T06:32:02;94636.19;;;26.07;49.26
35778;BME280;21899;42.662;23.316;2023-07-24T06:34:28;94640.31;;;26.17;49.23
35778;BME280;21899;42.662;23.316;2023-07-24T06:36:53;94639.84;;;26.39;49.87
35778;BME280;21899;42.662;23.316;2023-07-24T06:39:19;94637.78;;;26.54;49.31
35778;BME280;21899;42.662;23.316;2023-07-24T06:41:44;94629.69;;;26.65;48.80
35778;BME280;21899;42.662;23.316;2023-07-24T06:44:09;94629.69;;;26.45;49.72
35778;BME280;21899;42.662;23.316;2023-07-24T06:46:35;94618.97;;;26.47;49.65
35778;BME280;21899;42.662;23.316;2023-07-24T06:49:00;94632.84;;;26.78;48.78
35778;BME280;21899;42.662;23.316;2023-07-24T06:51:26;94618.84;;;26.76;49.77
35778;BME280;21899;42.662;23.316;2023-07-24T06:53:51;94621.16;;;26.83;49.93
35778;BME280;21899;42.662;23.316;2023-07-24T06:56:16;94628.06;;;26.73;49.39
35778;BME280;21899;42.662;23.316;2023-07-24T06:58:42;94631.34;;;26.57;49.34
35778;BME280;21899;42.662;23.316;2023-07-24T07:01:07;94638.28;;;26.52;49.91
35778;BME280;21899;42.662;23.316;2023-07-24T07:03:33;94635.31;;;26.56;51.47
35778;BME280;21899;42.662;23.316;2023-07-24T07:06:01;94635.81;;;26.34;51.89
35778;BME280;21899;42.662;23.316;2023-07-24T07:08:28;94632.84;;;26.58;51.98
35778;BME280;21899;42.662;23.316;2023-07-24T07:11:03;94637.13;;;26.79;50.68
35778;BME280;21899;42.662;23.316;2023-07-24T07:13:29;94636.09;;;26.76;51.14
35778;BME280;21899;42.662;23.316;2023-07-24T07:15:54;94631.63;;;26.79;51.13
35778;BME280;21899;42.662;23.316;2023-07-24T07:18:19;94639.09;;;26.78;50.83
35778;BME280;21899;42.662;23.316;2023-07-24T07:20:46;94627.31;;;26.72;51.00
35778;BME280;21899;42.662;23.316;2023-07-24T07:23:12;94629.50;;;26.68;51.54
35778;BME280;21899;42.662;23.316;2023-07-24T07:25:37;94627.34;;;26.58;51.47
35778;BME280;21899;42.662;23.316;2023-07-24T07:28:02;94613.78;;;26.49;51.70
35778;BME280;21899;42.662;23.316;2023-07-24T07:30:28;94625.72;;;26.46;51.93
35778;BME280;21899;42.662;23.316;2023-07-24T07:32:53;94624.06;;;26.54;50.92
35778;BME280;21899;42.662;23.316;2023-07-24T07:35:19;94623.44;;;26.84;51.01
35778;BME280;21899;42.662;23.316;2023-07-24T07:37:45;94617.63;;;27.03;50.66
35778;BME280;21899;42.662;23.316;2023-07-24T07:40:10;94618.06;;;27.21;48.89
35778;BME280;21899;42.662;23.316;2023-07-24T07:42:36;94624.34;;;27.27;48.99
35778;BME280;21899;42.662;23.316;2023-07-24T07:45:01;94618.28;;;27.43;47.91
35778;BME280;21899;42.662;23.316;2023-07-24T07:47:27;94619.97;;;27.66;48.20
35778;BME280;21899;42.662;23.316;2023-07-24T07:49:52;94626.59;;;27.85;46.52
35778;BME280;21899;42.662;23.316;2023-07-24T07:52:17;94625.44;;;27.92;46.83
35778;BME280;21899;42.662;23.316;2023-07-24T07:54:49;94616.78;;;28.10;46.08
35778;BME280;21899;42.662;23.316;2023-07-24T07:57:15;94617.59;;;28.22;46.17
35778;BME280;21899;42.662;23.316;2023-07-24T07:59:41;94612.09;;;28.16;45.79
35778;BME280;21899;42.662;23.316;2023-07-24T08:02:06;94621.78;;;28.11;45.39
35778;BME280;21899;42.662;23.316;2023-07-24T08:04:32;94617.09;;;28.17;45.71
35778;BME280;21899;42.662;23.316;2023-07-24T08:06:57;94620.97;;;28.42;44.85
35778;BME280;21899;42.662;23.316;2023-07-24T08:09:23;94625.56;;;28.56;44.29
35778;BME280;21899;42.662;23.316;2023-07-24T08:11:49;94622.06;;;28.56;44.88
35778;BME280;21899;42.662;23.316;2023-07-24T08:14:16;94625.13;;;28.69;43.57
35778;BME280;21899;42.662;23.316;2023-07-24T08:16:41;94620.81;;;28.57;43.90
35778;BME280;21899;42.662;23.316;2023-07-24T08:19:07;94618.81;;;28.63;43.83
35778;BME280;21899;42.662;23.316;2023-07-24T08:21:32;94604.09;;;28.77;43.75
35778;BME280;21899;42.662;23.316;2023-07-24T08:23:58;94610.19;;;29.03;43.45
35778;BME280;21899;42.662;23.316;2023-07-24T08:26:25;94600.69;;;29.09;43.10
35778;BME280;21899;42.662;23.316;2023-07-24T08:28:51;94595.44;;;29.22;42.75
35778;BME280;21899;42.662;23.316;2023-07-24T08:31:17;94597.47;;;29.33;42.59
35778;BME280;21899;42.662;23.316;2023-07-24T08:33:42;94591.72;;;29.31;42.72
35778;BME280;21899;42.662;23.316;2023-07-24T08:36:08;94591.22;;;29.49;41.74
35778;BME280;21899;42.662;23.316;2023-07-24T08:38:35;94590.72;;;29.56;40.90
35778;BME280;21899;42.662;23.316;2023-07-24T08:41:02;94582.69;;;29.58;40.47
35778;BME280;21899;42.662;23.316;2023-07-24T08:43:29;94599.97;;;29.42;40.51
35778;BME280;21899;42.662;23.316;2023-07-24T08:45:56;94586.69;;;29.13;41.35
35778;BME280;21899;42.662;23.316;2023-07-24T08:48:22;94586.41;;;29.05;41.41
35778;BME280;21899;42.662;23.316;2023-07-24T08:50:50;94581.84;;;29.02;42.33
35778;BME280;21899;42.662;23.316;2023-07-24T08:53:19;94585.63;;;28.94;41.93
35778;BME280;21899;42.662;23.316;2023-07-24T08:55:45;94587.69;;;29.10;41.13
35778;BME280;21899;42.662;23.316;2023-07-24T08:58:13;94582.66;;;29.19;40.95
35778;BME280;21899;42.662;23.316;2023-07-24T09:00:39;94584.47;;;29.33;41.11
35778;BME280;21899;42.662;23.316;2023-07-24T09:03:05;94573.69;;;29.47;40.79
35778;BME280;21899;42.662;23.316;2023-07-24T09:05:30;94590.47;;;29.60;40.71
35778;BME280;21899;42.662;23.316;2023-07-24T09:07:56;94579.69;;;29.67;39.98
35778;BME280;21899;42.662;23.316;2023-07-24T09:10:27;94579.44;;;29.71;40.08
35778;BME280;21899;42.662;23.316;2023-07-24T09:12:54;94580.66;;;29.92;40.09
35778;BME280;21899;42.662;23.316;2023-07-24T09:15:20;94578.63;;;30.03;39.39
35778;BME280;21899;42.662;23.316;2023-07-24T09:17:53;94580.66;;;29.97;39.41
35778;BME280;21899;42.662;23.316;2023-07-24T09:20:19;94561.13;;;29.84;38.82
35778;BME280;21899;42.662;23.316;2023-07-24T09:22:54;94574.13;;;30.00;39.48
35778;BME280;21899;42.662;23.316;2023-07-24T09:25:32;94556.31;;;29.96;38.67
35778;BME280;21899;42.662;23.316;2023-07-24T09:28:08;94566.09;;;30.08;38.66
35778;BME280;21899;42.662;23.316;2023-07-24T09:30:34;94551.53;;;30.07;38.31
35778;BME280;21899;42.662;23.316;2023-07-24T09:32:59;94557.00;;;30.29;37.32
35778;BME280;21899;42.662;23.316;2023-07-24T09:35:24;94551.75;;;30.15;36.79
35778;BME280;21899;42.662;23.316;2023-07-24T09:38:07;94546.53;;;30.00;38.01
35778;BME280;21899;42.662;23.316;2023-07-24T09:40:44;94552.28;;;30.08;37.38
35778;BME280;21899;42.662;23.316;2023-07-24T09:43:27;94534.47;;;30.09;38.08
35778;BME280;21899;42.662;23.316;2023-07-24T09:45:53;94532.63;;;30.33;37.07
35778;BME280;21899;42.662;23.316;2023-07-24T09:48:21;94525.75;;;30.56;36.03
35778;BME280;21899;42.662;23.316;2023-07-24T09:50:48;94511.31;;;30.80;35.74
35778;BME280;21899;42.662;23.316;2023-07-24T09:56:03;94512.97;;;31.29;34.00
35778;BME280;21899;42.662;23.316;2023-07-24T09:58:32;94514.53;;;31.25;32.56
35778;BME280;21899;42.662;23.316;2023-07-24T10:00:58;94507.56;;;31.13;32.30
35778;BME280;21899;42.662;23.316;2023-07-24T10:03:24;94521.25;;;31.00;32.60
35778;BME280;21899;42.662;23.316;2023-07-24T10:05:49;94506.44;;;30.97;33.54
35778;BME280;21899;42.662;23.316;2023-07-24T10:08:17;94508.81;;;30.82;33.26
35778;BME280;21899;42.662;23.316;2023-07-24T10:10:42;94499.91;;;30.95;33.51
35778;BME280;21899;42.662;23.316;2023-07-24T10:13:09;94506.19;;;30.95;34.34
35778;BME280;21899;42.662;23.316;2023-07-24T10:15:39;94499.09;;;31.05;34.01
35778;BME280;21899;42.662;23.316;2023-07-24T10:18:06;94489.91;;;30.86;34.05
35778;BME280;21899;42.662;23.316;2023-07-24T10:20:36;94493.75;;;31.13;34.03
35778;BME280;21899;42.662;23.316;2023-07-24T10:23:02;94489.78;;;31.38;33.17
35778;BME280;21899;42.662;23.316;2023-07-24T10:25:33;94488.78;;;31.65;33.32
35778;BME280;21899;42.662;23.316;2023-07-24T10:28:07;94474.47;;;31.85;33.15
35778;BME280;21899;42.662;23.316;2023-07-24T10:30:40;94485.00;;;31.92;32.94
35778;BME280;21899;42.662;23.316;2023-07-24T10:33:17;94492.34;;;32.08;32.20
35778;BME280;21899;42.662;23.316;2023-07-24T10:35:49;94483.47;;;32.15;31.93
35778;BME280;21899;42.662;23.316;2023-07-24T10:38:17;94475.16;;;32.15;32.48
35778;BME280;21899;42.662;23.316;2023-07-24T10:40:44;94481.16;;;32.19;32.37
35778;BME280;21899;42.662;23.316;2023-07-24T10:43:17;94476.78;;;32.05;32.51
35778;BME280;21899;42.662;23.316;2023-07-24T10:45:47;94476.44;;;31.90;33.38
35778;BME280;21899;42.662;23.316;2023-07-24T10:48:19;94471.72;;;32.09;33.23
35778;BME280;21899;42.662;23.316;2023-07-24T10:50:47;94471.63;;;32.39;32.83
35778;BME280;21899;42.662;23.316;2023-07-24T10:53:17;94462.69;;;32.64;32.63
35778;BME280;21899;42.662;23.316;2023-07-24T10:55:44;94460.06;;;32.90;31.96
35778;BME280;21899;42.662;23.316;2023-07-24T10:58:10;94460.34;;;33.06;31.45
35778;BME280;21899;42.662;23.316;2023-07-24T11:00:36;94445.91;;;32.94;31.97
35778;BME280;21899;42.662;23.316;2023-07-24T11:03:03;94446.97;;;33.04;31.88
35778;BME280;21899;42.662;23.316;2023-07-24T11:05:28;94448.00;;;33.20;31.10
35778;BME280;21899;42.662;23.316;2023-07-24T11:07:54;94452.66;;;33.12;30.31
35778;BME280;21899;42.662;23.316;2023-07-24T11:10:22;94441.84;;;33.27;30.77
35778;BME280;21899;42.662;23.316;2023-07-24T11:12:48;94448.75;;;33.20;29.85
35778;BME280;21899;42.662;23.316;2023-07-24T11:15:15;94442.84;;;33.42;30.34
35778;BME280;21899;42.662;23.316;2023-07-24T11:17:42;94444.56;;;33.58;30.46
35778;BME280;21899;42.662;23.316;2023-07-24T11:20:15;94433.88;;;33.75;30.52
35778;BME280;21899;42.662;23.316;2023-07-24T11:22:43;94440.50;;;33.72;29.26
35778;BME280;21899;42.662;23.316;2023-07-24T11:25:12;94440.06;;;33.55;30.07
35778;BME280;21899;42.662;23.316;2023-07-24T11:27:42;94429.78;;;33.37;29.67
35778;BME280;21899;42.662;23.316;2023-07-24T11:30:10;94425.88;;;33.46;29.47
35778;BME280;21899;42.662;23.316;2023-07-24T11:32:38;94421.63;;;33.58;29.57
35778;BME280;21899;42.662;23.316;2023-07-24T11:35:03;94418.94;;;33.65;29.83
35778;BME280;21899;42.662;23.316;2023-07-24T11:37:30;94420.31;;;33.46;30.41
35778;BME280;21899;42.662;23.316;2023-07-24T11:40:00;94410.84;;;33.10;30.49
35778;BME280;21899;42.662;23.316;2023-07-24T11:42:33;94417.72;;;33.22;31.01
35778;BME280;21899;42.662;23.316;2023-07-24T11:45:00;94407.88;;;33.21;30.82
35778;BME280;21899;42.662;23.316;2023-07-24T11:47:26;94414.69;;;33.07;31.56
35778;BME280;21899;42.662;23.316;2023-07-24T11:49:59;94405.75;;;33.14;31.49
35778;BME280;21899;42.662;23.316;2023-07-24T11:52:25;94418.31;;;33.15;32.46
35778;BME280;21899;42.662;23.316;2023-07-24T11:54:57;94413.94;;;33.06;31.80
35778;BME280;21899;42.662;23.316;2023-07-24T11:57:27;94397.25;;;32.93;32.16
35778;BME280;21899;42.662;23.316;2023-07-24T11:59:53;94398.53;;;32.92;32.24
35778;BME280;21899;42.662;23.316;2023-07-24T12:02:19;94400.72;;;32.80;32.38
35778;BME280;21899;42.662;23.316;2023-07-24T12:04:44;94407.44;;;32.85;32.48
35778;BME280;21899;42.662;23.316;2023-07-24T12:07:09;94389.41;;;33.10;31.68
35778;BME280;21899;42.662;23.316;2023-07-24T12:09:35;94397.28;;;33.51;30.95
35778;BME280;21899;42.662;23.316;2023-07-24T12:12:03;94401.97;;;33.82;31.44
35778;BME280;21899;42.662;23.316;2023-07-24T12:14:29;94403.25;;;33.94;31.48
35778;BME280;21899;42.662;23.316;2023-07-24T12:17:02;94392.56;;;33.72;29.60
35778;BME280;21899;42.662;23.316;2023-07-24T12:19:27;94394.28;;;33.75;29.04
35778;BME280;21899;42.662;23.316;2023-07-24T12:21:53;94401.97;;;33.82;28.61
35778;BME280;21899;42.662;23.316;2023-07-24T12:24:18;94394.31;;;33.62;28.88
35778;BME280;21899;42.662;23.316;2023-07-24T12:26:44;94394.94;;;33.68;29.44
35778;BME280;21899;42.662;23.316;2023-07-24T12:29:09;94390.44;;;33.91;29.45
35778;BME280;21899;42.662;23.316;2023-07-24T12:31:34;94391.16;;;34.17;28.93
35778;BME280;21899;42.662;23.316;2023-07-24T12:34:00;94386.88;;;34.16;28.67
35778;BME280;21899;42.662;23.316;2023-07-24T12:36:25;94381.88;;;34.02;29.63
35778;BME280;21899;42.662;23.316;2023-07-24T12:38:51;94381.03;;;33.81;30.37
35778;BME280;21899;42.662;23.316;2023-07-24T12:41:16;94385.75;;;33.73;30.56
35778;BME280;21899;42.662;23.316;2023-07-24T12:43:43;94377.97;;;33.58;30.61
35778;BME280;21899;42.662;23.316;2023-07-24T12:46:09;94360.56;;;33.45;31.08
35778;BME280;21899;42.662;23.316;2023-07-24T12:48:34;94364.63;;;33.70;30.73
35778;BME280;21899;42.662;23.316;2023-07-24T12:51:01;94370.38;;;33.98;30.19
35778;BME280;21899;42.662;23.316;2023-07-24T12:53:26;94370.44;;;34.05;28.79